< < Back
Terminal Aerodrome Forecast


Current Version              Previous Versions:   1  2  3  4  5  6  7  8  9  

Terminal Aerodrome Forecast

088
FTUS44 KMRX 241731
TAFCHA
TAF
KCHA 241731Z 2418/2518 01007KT P6SM SCT200
     FM250000 00000KT P6SM SCT250
     FM251300 01005KT P6SM SCT150 BKN250=



Latest METAR

105
SAUS80 KWBC 250000 RRC
MTRCHA
METAR KCHA 242353Z 32004KT 10SM SCT200 14/09 A3005 RMK AO2 SLP175
T01440094 10228 20144 53009


USA.gov is the U.S. government's official web portal to all federal, state and local government web resources and services.